East Vail, Colorado
Current Conditions -  °F | °C
As of 8:35 PM on Friday 19 Dec 2014 (Local Time) from KCCU Reporting Station
Clear Clear  
Wind Chill:   Ceiling: Unl
Heat Index: 14°   Visibility: NA
Dew Point:   Wind: 12mph
Humidity: 79%   Direction: 250°WSW
Pressure: 30.12"   Gusts: 18mph
Location:  39.5908°N, 106.4°W
Report Text: KCCU 200335Z AUTO 25010G16KT CLR M10/M13 A3012 RMK AO2 PWINO
Loading
Personal Weather Stations






























Interactive Weather Map New forecast layout! Learn more

10-Day Weather Forecast

Advertisements
Track Severe Weather on mobile